sensor_id;sensor_type;location;lat;lon;timestamp;pressure;altitude;pressure_sealevel;temperature;humidity
51781;BME280;37844;57.126;24.288;2022-11-02T00:00:44;101631.47;;;10.86;100.00
51781;BME280;37844;57.126;24.288;2022-11-02T00:03:10;101630.06;;;10.98;100.00
51781;BME280;37844;57.126;24.288;2022-11-02T00:05:35;101626.41;;;10.90;100.00
51781;BME280;37844;57.126;24.288;2022-11-02T00:08:01;101632.44;;;10.89;100.00
51781;BME280;37844;57.126;24.288;2022-11-02T00:10:27;101628.31;;;10.97;100.00
51781;BME280;37844;57.126;24.288;2022-11-02T00:12:54;101621.44;;;10.98;100.00
51781;BME280;37844;57.126;24.288;2022-11-02T00:15:20;101617.94;;;10.96;100.00
51781;BME280;37844;57.126;24.288;2022-11-02T00:17:48;101613.47;;;10.89;100.00
51781;BME280;37844;57.126;24.288;2022-11-02T00:20:16;101620.88;;;10.75;100.00
51781;BME280;37844;57.126;24.288;2022-11-02T00:22:43;101609.78;;;10.79;100.00
51781;BME280;37844;57.126;24.288;2022-11-02T00:25:11;101620.28;;;10.87;100.00
51781;BME280;37844;57.126;24.288;2022-11-02T00:27:39;101615.38;;;10.96;100.00
51781;BME280;37844;57.126;24.288;2022-11-02T00:30:07;101611.63;;;10.83;100.00
51781;BME280;37844;57.126;24.288;2022-11-02T00:32:33;101617.63;;;10.82;100.00
51781;BME280;37844;57.126;24.288;2022-11-02T00:34:58;101618.38;;;10.78;100.00
51781;BME280;37844;57.126;24.288;2022-11-02T00:37:23;101608.91;;;10.78;100.00
51781;BME280;37844;57.126;24.288;2022-11-02T00:39:49;101605.78;;;10.90;100.00
51781;BME280;37844;57.126;24.288;2022-11-02T00:42:14;101602.34;;;10.90;100.00
51781;BME280;37844;57.126;24.288;2022-11-02T00:44:41;101597.94;;;10.86;100.00
51781;BME280;37844;57.126;24.288;2022-11-02T00:47:06;101598.91;;;10.91;100.00
51781;BME280;37844;57.126;24.288;2022-11-02T00:49:32;101602.41;;;10.93;100.00
51781;BME280;37844;57.126;24.288;2022-11-02T00:51:57;101601.53;;;10.92;100.00
51781;BME280;37844;57.126;24.288;2022-11-02T00:54:23;101597.19;;;10.90;100.00
51781;BME280;37844;57.126;24.288;2022-11-02T00:56:48;101597.19;;;10.90;100.00
51781;BME280;37844;57.126;24.288;2022-11-02T00:59:14;101598.22;;;10.96;100.00
51781;BME280;37844;57.126;24.288;2022-11-02T01:01:40;101597.41;;;10.99;100.00
51781;BME280;37844;57.126;24.288;2022-11-02T01:04:05;101590.44;;;10.95;100.00
51781;BME280;37844;57.126;24.288;2022-11-02T01:06:31;101598.34;;;11.02;100.00
51781;BME280;37844;57.126;24.288;2022-11-02T01:08:56;101599.91;;;10.96;100.00
51781;BME280;37844;57.126;24.288;2022-11-02T01:11:23;101595.50;;;10.92;100.00
51781;BME280;37844;57.126;24.288;2022-11-02T01:13:50;101595.50;;;10.92;100.00
51781;BME280;37844;57.126;24.288;2022-11-02T01:16:17;101590.50;;;10.98;100.00
51781;BME280;37844;57.126;24.288;2022-11-02T01:18:42;101590.59;;;11.01;100.00
51781;BME280;37844;57.126;24.288;2022-11-02T01:21:08;101587.09;;;10.99;100.00
51781;BME280;37844;57.126;24.288;2022-11-02T01:23:35;101580.22;;;10.99;100.00
51781;BME280;37844;57.126;24.288;2022-11-02T01:26:05;101580.16;;;10.96;100.00
51781;BME280;37844;57.126;24.288;2022-11-02T01:28:30;101574.72;;;10.86;100.00
51781;BME280;37844;57.126;24.288;2022-11-02T01:30:57;101582.53;;;10.89;100.00
51781;BME280;37844;57.126;24.288;2022-11-02T01:33:23;101571.44;;;10.93;100.00
51781;BME280;37844;57.126;24.288;2022-11-02T01:35:49;101573.22;;;10.95;100.00
51781;BME280;37844;57.126;24.288;2022-11-02T01:38:14;101571.41;;;10.91;100.00
51781;BME280;37844;57.126;24.288;2022-11-02T01:40:39;101571.41;;;10.91;100.00
51781;BME280;37844;57.126;24.288;2022-11-02T01:45:47;101565.34;;;10.89;100.00
51781;BME280;37844;57.126;24.288;2022-11-02T01:48:14;101568.81;;;10.90;100.00
51781;BME280;37844;57.126;24.288;2022-11-02T01:50:40;101564.34;;;10.84;100.00
51781;BME280;37844;57.126;24.288;2022-11-02T01:53:06;101562.63;;;10.83;100.00
51781;BME280;37844;57.126;24.288;2022-11-02T01:55:33;101556.59;;;10.84;100.00
51781;BME280;37844;57.126;24.288;2022-11-02T01:58:05;101547.88;;;10.77;100.00
51781;BME280;37844;57.126;24.288;2022-11-02T02:00:32;101557.34;;;10.78;100.00
51781;BME280;37844;57.126;24.288;2022-11-02T02:03:11;101562.22;;;10.68;100.00
51781;BME280;37844;57.126;24.288;2022-11-02T02:05:46;101561.47;;;10.72;100.00
51781;BME280;37844;57.126;24.288;2022-11-02T02:08:16;101557.38;;;10.80;100.00
51781;BME280;37844;57.126;24.288;2022-11-02T02:10:42;101556.47;;;10.78;100.00
51781;BME280;37844;57.126;24.288;2022-11-02T02:13:08;101558.22;;;10.79;100.00
51781;BME280;37844;57.126;24.288;2022-11-02T02:16:22;101559.19;;;10.84;100.00
51781;BME280;37844;57.126;24.288;2022-11-02T02:18:47;101549.53;;;10.75;100.00
51781;BME280;37844;57.126;24.288;2022-11-02T02:24:23;101557.34;;;10.78;100.00
51781;BME280;37844;57.126;24.288;2022-11-02T02:29:48;101560.03;;;10.83;100.00
51781;BME280;37844;57.126;24.288;2022-11-02T02:32:24;101566.13;;;10.87;100.00
51781;BME280;37844;57.126;24.288;2022-11-02T02:34:52;101562.78;;;10.89;100.00
51781;BME280;37844;57.126;24.288;2022-11-02T02:37:23;101565.31;;;10.88;100.00
51781;BME280;37844;57.126;24.288;2022-11-02T02:39:56;101561.88;;;10.89;100.00
51781;BME280;37844;57.126;24.288;2022-11-02T02:47:24;101540.09;;;10.76;100.00
51781;BME280;37844;57.126;24.288;2022-11-02T02:50:01;101554.75;;;10.78;100.00
51781;BME280;37844;57.126;24.288;2022-11-02T02:52:29;101548.56;;;10.72;100.00
51781;BME280;37844;57.126;24.288;2022-11-02T02:54:58;101553.72;;;10.70;100.00
51781;BME280;37844;57.126;24.288;2022-11-02T02:57:26;101550.13;;;10.65;100.00
51781;BME280;37844;57.126;24.288;2022-11-02T02:59:54;101545.97;;;10.70;100.00
51781;BME280;37844;57.126;24.288;2022-11-02T03:02:23;101546.78;;;10.69;100.00
51781;BME280;37844;57.126;24.288;2022-11-02T03:04:49;101542.47;;;10.68;100.00
51781;BME280;37844;57.126;24.288;2022-11-02T03:07:21;101543.97;;;10.58;100.00
51781;BME280;37844;57.126;24.288;2022-11-02T03:15:42;101534.69;;;10.67;100.00
51781;BME280;37844;57.126;24.288;2022-11-02T03:18:38;101535.53;;;10.66;100.00
51781;BME280;37844;57.126;24.288;2022-11-02T03:21:32;101537.09;;;10.59;100.00
51781;BME280;37844;57.126;24.288;2022-11-02T03:26:44;101534.53;;;10.60;100.00
51781;BME280;37844;57.126;24.288;2022-11-02T03:31:56;101547.75;;;10.73;100.00
51781;BME280;37844;57.126;24.288;2022-11-02T03:37:14;101547.09;;;10.81;100.00
51781;BME280;37844;57.126;24.288;2022-11-02T03:39:46;101548.75;;;10.79;100.00
51781;BME280;37844;57.126;24.288;2022-11-02T03:42:17;101552.22;;;10.80;100.00
51781;BME280;37844;57.126;24.288;2022-11-02T03:44:46;101550.53;;;10.80;100.00
51781;BME280;37844;57.126;24.288;2022-11-02T03:47:15;101550.53;;;10.80;100.00
51781;BME280;37844;57.126;24.288;2022-11-02T03:49:43;101543.59;;;10.79;100.00
51781;BME280;37844;57.126;24.288;2022-11-02T03:52:15;101547.06;;;10.80;100.00
51781;BME280;37844;57.126;24.288;2022-11-02T03:55:05;101550.16;;;10.67;100.00
51781;BME280;37844;57.126;24.288;2022-11-02T03:57:39;101542.47;;;10.68;100.00
51781;BME280;37844;57.126;24.288;2022-11-02T04:00:14;101534.69;;;10.67;100.00
51781;BME280;37844;57.126;24.288;2022-11-02T04:02:42;101536.34;;;10.65;100.00
51781;BME280;37844;57.126;24.288;2022-11-02T04:05:08;101539.00;;;10.68;100.00
51781;BME280;37844;57.126;24.288;2022-11-02T04:07:35;101539.09;;;10.71;100.00
51781;BME280;37844;57.126;24.288;2022-11-02T04:10:20;101538.88;;;10.61;100.00
51781;BME280;37844;57.126;24.288;2022-11-02T04:12:49;101538.00;;;10.61;100.00
51781;BME280;37844;57.126;24.288;2022-11-02T04:15:33;101538.03;;;10.63;100.00
51781;BME280;37844;57.126;24.288;2022-11-02T04:17:58;101530.28;;;10.63;100.00
51781;BME280;37844;57.126;24.288;2022-11-02T04:20:42;101528.75;;;10.69;100.00
51781;BME280;37844;57.126;24.288;2022-11-02T04:23:07;101519.22;;;10.67;100.00
51781;BME280;37844;57.126;24.288;2022-11-02T04:25:59;101530.63;;;10.76;100.00
51781;BME280;37844;57.126;24.288;2022-11-02T04:28:24;101531.28;;;10.68;100.00
51781;BME280;37844;57.126;24.288;2022-11-02T04:30:49;101532.19;;;10.70;100.00
51781;BME280;37844;57.126;24.288;2022-11-02T04:33:15;101532.19;;;10.70;100.00
51781;BME280;37844;57.126;24.288;2022-11-02T04:36:04;101534.81;;;10.71;100.00
51781;BME280;37844;57.126;24.288;2022-11-02T04:38:30;101534.81;;;10.71;100.00
51781;BME280;37844;57.126;24.288;2022-11-02T04:41:06;101539.91;;;10.70;100.00
51781;BME280;37844;57.126;24.288;2022-11-02T04:43:51;101538.25;;;10.72;100.00
51781;BME280;37844;57.126;24.288;2022-11-02T04:46:16;101535.63;;;10.69;100.00
51781;BME280;37844;57.126;24.288;2022-11-02T04:48:41;101539.91;;;10.70;100.00
51781;BME280;37844;57.126;24.288;2022-11-02T04:51:07;101537.28;;;10.67;100.00
51781;BME280;37844;57.126;24.288;2022-11-02T04:53:32;101536.34;;;10.65;100.00
51781;BME280;37844;57.126;24.288;2022-11-02T04:55:59;101539.00;;;10.68;100.00
51781;BME280;37844;57.126;24.288;2022-11-02T04:58:25;101536.22;;;10.58;100.00
51781;BME280;37844;57.126;24.288;2022-11-02T05:00:50;101536.00;;;10.51;100.00
51781;BME280;37844;57.126;24.288;2022-11-02T05:03:16;101537.88;;;10.56;100.00
51781;BME280;37844;57.126;24.288;2022-11-02T05:05:41;101536.97;;;10.54;100.00
51781;BME280;37844;57.126;24.288;2022-11-02T05:08:20;101534.50;;;10.59;100.00
51781;BME280;37844;57.126;24.288;2022-11-02T05:10:46;101535.13;;;10.50;100.00
51781;BME280;37844;57.126;24.288;2022-11-02T05:13:11;101538.91;;;10.63;100.00
51781;BME280;37844;57.126;24.288;2022-11-02T05:15:40;101535.50;;;10.64;100.00
51781;BME280;37844;57.126;24.288;2022-11-02T05:18:05;101540.69;;;10.66;100.00
51781;BME280;37844;57.126;24.288;2022-11-02T05:20:31;101542.50;;;10.70;100.00
51781;BME280;37844;57.126;24.288;2022-11-02T05:22:57;101537.44;;;10.73;100.00
51781;BME280;37844;57.126;24.288;2022-11-02T05:25:22;101537.94;;;10.59;100.00
51781;BME280;37844;57.126;24.288;2022-11-02T05:27:48;101543.59;;;10.46;100.00
51781;BME280;37844;57.126;24.288;2022-11-02T05:30:13;101549.66;;;10.47;100.00
51781;BME280;37844;57.126;24.288;2022-11-02T05:32:39;101544.81;;;10.59;100.00
51781;BME280;37844;57.126;24.288;2022-11-02T05:35:04;101542.91;;;10.52;100.00
51781;BME280;37844;57.126;24.288;2022-11-02T05:37:30;101556.59;;;10.49;100.00
51781;BME280;37844;57.126;24.288;2022-11-02T05:39:55;101559.88;;;10.44;100.00
51781;BME280;37844;57.126;24.288;2022-11-02T05:42:22;101548.94;;;10.52;100.00
51781;BME280;37844;57.126;24.288;2022-11-02T05:44:48;101553.25;;;10.53;100.00
51781;BME280;37844;57.126;24.288;2022-11-02T05:47:13;101556.88;;;10.60;100.00
51781;BME280;37844;57.126;24.288;2022-11-02T05:49:39;101548.09;;;10.53;100.00
51781;BME280;37844;57.126;24.288;2022-11-02T05:52:04;101553.97;;;10.48;100.00
51781;BME280;37844;57.126;24.288;2022-11-02T05:54:29;101551.50;;;10.52;100.00
51781;BME280;37844;57.126;24.288;2022-11-02T05:56:56;101557.78;;;10.62;100.00
51781;BME280;37844;57.126;24.288;2022-11-02T05:59:21;101562.06;;;10.61;100.00
51781;BME280;37844;57.126;24.288;2022-11-02T06:01:47;101552.69;;;10.64;100.00
51781;BME280;37844;57.126;24.288;2022-11-02T06:04:12;101556.88;;;10.60;100.00
51781;BME280;37844;57.126;24.288;2022-11-02T06:06:37;101553.38;;;10.58;100.00
51781;BME280;37844;57.126;24.288;2022-11-02T06:09:03;101562.69;;;10.51;100.00
51781;BME280;37844;57.126;24.288;2022-11-02T06:11:28;101563.69;;;10.58;100.00
51781;BME280;37844;57.126;24.288;2022-11-02T06:13:54;101564.47;;;10.55;100.00
51781;BME280;37844;57.126;24.288;2022-11-02T06:16:19;101568.03;;;10.59;100.00
51781;BME280;37844;57.126;24.288;2022-11-02T06:18:45;101567.19;;;10.60;100.00
51781;BME280;37844;57.126;24.288;2022-11-02T06:21:10;101561.16;;;10.59;100.00
51781;BME280;37844;57.126;24.288;2022-11-02T06:23:36;101570.72;;;10.64;100.00
51781;BME280;37844;57.126;24.288;2022-11-02T06:26:03;101569.63;;;10.54;100.00
51781;BME280;37844;57.126;24.288;2022-11-02T06:28:29;101567.16;;;10.58;100.00
51781;BME280;37844;57.126;24.288;2022-11-02T06:30:55;101567.03;;;10.54;100.00
51781;BME280;37844;57.126;24.288;2022-11-02T06:33:20;101561.88;;;10.54;100.00
51781;BME280;37844;57.126;24.288;2022-11-02T06:35:48;101566.25;;;10.56;100.00
51781;BME280;37844;57.126;24.288;2022-11-02T06:38:14;101567.28;;;10.63;100.00
51781;BME280;37844;57.126;24.288;2022-11-02T06:40:40;101575.22;;;10.71;100.00
51781;BME280;37844;57.126;24.288;2022-11-02T06:43:06;101574.47;;;10.75;100.00
51781;BME280;37844;57.126;24.288;2022-11-02T06:45:31;101570.75;;;10.65;100.00
51781;BME280;37844;57.126;24.288;2022-11-02T06:47:57;101571.59;;;10.64;100.00
51781;BME280;37844;57.126;24.288;2022-11-02T06:50:22;101572.50;;;10.66;100.00
51781;BME280;37844;57.126;24.288;2022-11-02T06:52:49;101576.69;;;10.61;100.00
51781;BME280;37844;57.126;24.288;2022-11-02T06:55:15;101576.81;;;10.67;100.00
51781;BME280;37844;57.126;24.288;2022-11-02T06:57:41;101570.75;;;10.65;100.00
51781;BME280;37844;57.126;24.288;2022-11-02T07:00:12;101574.25;;;10.67;100.00
51781;BME280;37844;57.126;24.288;2022-11-02T07:02:40;101578.72;;;10.74;100.00
51781;BME280;37844;57.126;24.288;2022-11-02T07:05:06;101575.38;;;10.78;100.00
51781;BME280;37844;57.126;24.288;2022-11-02T07:07:31;101567.47;;;10.72;100.00
51781;BME280;37844;57.126;24.288;2022-11-02T07:09:57;101572.81;;;10.78;100.00
51781;BME280;37844;57.126;24.288;2022-11-02T07:12:23;101571.78;;;10.72;100.00
51781;BME280;37844;57.126;24.288;2022-11-02T07:14:48;101569.94;;;10.66;100.00
51781;BME280;37844;57.126;24.288;2022-11-02T07:17:14;101574.22;;;10.66;100.00
51781;BME280;37844;57.126;24.288;2022-11-02T07:19:39;101577.53;;;10.61;100.00
51781;BME280;37844;57.126;24.288;2022-11-02T07:22:05;101580.94;;;10.60;100.00
51781;BME280;37844;57.126;24.288;2022-11-02T07:24:30;101582.94;;;10.71;100.00
51781;BME280;37844;57.126;24.288;2022-11-02T07:26:56;101575.16;;;10.69;100.00
51781;BME280;37844;57.126;24.288;2022-11-02T07:29:21;101570.66;;;10.62;100.00
51781;BME280;37844;57.126;24.288;2022-11-02T07:31:47;101573.44;;;10.70;100.00
51781;BME280;37844;57.126;24.288;2022-11-02T07:34:13;101577.97;;;10.78;100.00
51781;BME280;37844;57.126;24.288;2022-11-02T07:36:38;101572.09;;;10.84;100.00
51781;BME280;37844;57.126;24.288;2022-11-02T07:39:04;101577.34;;;10.87;100.00
51781;BME280;37844;57.126;24.288;2022-11-02T07:41:32;101573.88;;;10.87;100.00
51781;BME280;37844;57.126;24.288;2022-11-02T07:43:58;101575.56;;;10.86;100.00
51781;BME280;37844;57.126;24.288;2022-11-02T07:46:23;101569.44;;;10.81;100.00
51781;BME280;37844;57.126;24.288;2022-11-02T07:48:49;101577.16;;;10.81;100.00
51781;BME280;37844;57.126;24.288;2022-11-02T07:51:14;101570.41;;;10.86;100.00
51781;BME280;37844;57.126;24.288;2022-11-02T07:53:40;101568.63;;;10.83;100.00
51781;BME280;37844;57.126;24.288;2022-11-02T07:56:06;101568.69;;;10.85;100.00
51781;BME280;37844;57.126;24.288;2022-11-02T07:58:31;101562.84;;;10.92;100.00
51781;BME280;37844;57.126;24.288;2022-11-02T08:00:57;101562.84;;;10.92;100.00
51781;BME280;37844;57.126;24.288;2022-11-02T08:03:24;101559.41;;;10.92;100.00
51781;BME280;37844;57.126;24.288;2022-11-02T08:05:49;101561.88;;;10.89;100.00
51781;BME280;37844;57.126;24.288;2022-11-02T08:08:17;101562.91;;;10.95;100.00
51781;BME280;37844;57.126;24.288;2022-11-02T08:10:44;101557.81;;;10.98;100.00
51781;BME280;37844;57.126;24.288;2022-11-02T08:13:12;101559.72;;;11.06;100.00
51781;BME280;37844;57.126;24.288;2022-11-02T08:15:38;101556.03;;;10.94;100.00
51781;BME280;37844;57.126;24.288;2022-11-02T08:18:05;101555.25;;;10.98;100.00
51781;BME280;37844;57.126;24.288;2022-11-02T08:20:34;101548.41;;;11.00;100.00
51781;BME280;37844;57.126;24.288;2022-11-02T08:23:06;101551.97;;;11.04;100.00
51781;BME280;37844;57.126;24.288;2022-11-02T08:25:33;101548.50;;;11.03;100.00
51781;BME280;37844;57.126;24.288;2022-11-02T08:28:00;101553.78;;;11.10;100.00
51781;BME280;37844;57.126;24.288;2022-11-02T08:30:27;101552.19;;;11.15;100.00
51781;BME280;37844;57.126;24.288;2022-11-02T08:32:53;101545.25;;;11.12;100.00
51781;BME280;37844;57.126;24.288;2022-11-02T08:35:18;101544.44;;;11.15;100.00
51781;BME280;37844;57.126;24.288;2022-11-02T08:37:44;101547.03;;;11.15;100.00
51781;BME280;37844;57.126;24.288;2022-11-02T08:40:15;101548.84;;;11.19;100.00
51781;BME280;37844;57.126;24.288;2022-11-02T08:42:41;101542.06;;;11.22;100.00
51781;BME280;37844;57.126;24.288;2022-11-02T08:45:06;101539.50;;;11.22;100.00
51781;BME280;37844;57.126;24.288;2022-11-02T08:47:32;101538.75;;;11.28;100.00
51781;BME280;37844;57.126;24.288;2022-11-02T08:49:57;101538.69;;;11.27;100.00
51781;BME280;37844;57.126;24.288;2022-11-02T08:52:23;101537.09;;;11.32;100.00
51781;BME280;37844;57.126;24.288;2022-11-02T08:54:48;101535.47;;;11.35;100.00
51781;BME280;37844;57.126;24.288;2022-11-02T08:57:14;101537.09;;;11.32;100.00
51781;BME280;37844;57.126;24.288;2022-11-02T08:59:39;101532.88;;;11.35;100.00
51781;BME280;37844;57.126;24.288;2022-11-02T09:02:05;101536.47;;;11.42;100.00
51781;BME280;37844;57.126;24.288;2022-11-02T09:04:30;101535.69;;;11.44;100.00
51781;BME280;37844;57.126;24.288;2022-11-02T09:06:56;101530.50;;;11.44;100.00
51781;BME280;37844;57.126;24.288;2022-11-02T09:09:21;101530.56;;;11.46;100.00
51781;BME280;37844;57.126;24.288;2022-11-02T09:11:49;101525.41;;;11.48;100.00
51781;BME280;37844;57.126;24.288;2022-11-02T09:14:14;101526.22;;;11.45;100.00
51781;BME280;37844;57.126;24.288;2022-11-02T09:16:40;101529.66;;;11.44;100.00
51781;BME280;37844;57.126;24.288;2022-11-02T09:19:05;101537.41;;;11.45;100.00
51781;BME280;37844;57.126;24.288;2022-11-02T09:21:30;101528.84;;;11.46;100.00
51781;BME280;37844;57.126;24.288;2022-11-02T09:23:56;101527.06;;;11.44;100.00
51781;BME280;37844;57.126;24.288;2022-11-02T09:26:21;101529.56;;;11.41;100.00
51781;BME280;37844;57.126;24.288;2022-11-02T09:28:47;101527.72;;;11.35;100.00
51781;BME280;37844;57.126;24.288;2022-11-02T09:31:12;101526.97;;;11.39;100.00
51781;BME280;37844;57.126;24.288;2022-11-02T09:33:38;101528.75;;;11.42;100.00
51781;BME280;37844;57.126;24.288;2022-11-02T09:36:05;101523.69;;;11.46;100.00
51781;BME280;37844;57.126;24.288;2022-11-02T09:38:31;101526.22;;;11.45;100.00
51781;BME280;37844;57.126;24.288;2022-11-02T09:48:58;101519.38;;;11.47;100.00
51781;BME280;37844;57.126;24.288;2022-11-02T09:51:31;101527.94;;;11.44;100.00
51781;BME280;37844;57.126;24.288;2022-11-02T09:56:33;101524.50;;;11.45;100.00
51781;BME280;37844;57.126;24.288;2022-11-02T09:59:03;101516.78;;;11.47;100.00
51781;BME280;37844;57.126;24.288;2022-11-02T10:01:32;101519.31;;;11.44;100.00
51781;BME280;37844;57.126;24.288;2022-11-02T10:04:24;101526.25;;;11.46;100.00
51781;BME280;37844;57.126;24.288;2022-11-02T10:10:11;101523.78;;;11.51;100.00
51781;BME280;37844;57.126;24.288;2022-11-02T10:15:21;101523.78;;;11.53;100.00
51781;BME280;37844;57.126;24.288;2022-11-02T10:17:53;101524.69;;;11.55;100.00
51781;BME280;37844;57.126;24.288;2022-11-02T10:20:31;101526.41;;;11.54;100.00
51781;BME280;37844;57.126;24.288;2022-11-02T10:23:04;101521.22;;;11.53;100.00
51781;BME280;37844;57.126;24.288;2022-11-02T10:25:32;101515.75;;;11.39;100.00
51781;BME280;37844;57.126;24.288;2022-11-02T10:28:13;101520.31;;;11.51;100.00
51781;BME280;37844;57.126;24.288;2022-11-02T10:30:40;101514.28;;;11.50;100.00
51781;BME280;37844;57.126;24.288;2022-11-02T10:33:16;101517.75;;;11.52;100.00
51781;BME280;37844;57.126;24.288;2022-11-02T10:39:02;101521.41;;;11.60;100.00
51781;BME280;37844;57.126;24.288;2022-11-02T10:51:53;101499.13;;;11.67;100.00
51781;BME280;37844;57.126;24.288;2022-11-02T10:54:18;101506.06;;;11.68;100.00
51781;BME280;37844;57.126;24.288;2022-11-02T10:56:44;101495.75;;;11.70;100.00
51781;BME280;37844;57.126;24.288;2022-11-02T10:59:13;101500.13;;;11.72;100.00
51781;BME280;37844;57.126;24.288;2022-11-02T11:02:03;101493.19;;;11.71;100.00
51781;BME280;37844;57.126;24.288;2022-11-02T11:04:34;101493.28;;;11.76;100.00
51781;BME280;37844;57.126;24.288;2022-11-02T11:07:11;101497.66;;;11.78;100.00
51781;BME280;37844;57.126;24.288;2022-11-02T11:09:45;101497.56;;;11.74;100.00
51781;BME280;37844;57.126;24.288;2022-11-02T11:12:20;101495.78;;;11.71;100.00
51781;BME280;37844;57.126;24.288;2022-11-02T11:14:51;101496.53;;;11.65;100.00
51781;BME280;37844;57.126;24.288;2022-11-02T11:17:23;101484.59;;;11.71;100.00
51781;BME280;37844;57.126;24.288;2022-11-02T11:19:54;101487.28;;;11.77;100.00
51781;BME280;37844;57.126;24.288;2022-11-02T11:24:49;101487.03;;;11.64;100.00
51781;BME280;37844;57.126;24.288;2022-11-02T11:27:17;101491.47;;;11.70;100.00
51781;BME280;37844;57.126;24.288;2022-11-02T11:29:51;101490.63;;;11.71;100.00
51781;BME280;37844;57.126;24.288;2022-11-02T11:32:21;101489.78;;;11.72;100.00
51781;BME280;37844;57.126;24.288;2022-11-02T11:35:01;101481.94;;;11.67;100.00
51781;BME280;37844;57.126;24.288;2022-11-02T11:37:28;101490.41;;;11.62;100.00
51781;BME280;37844;57.126;24.288;2022-11-02T11:42:26;101480.94;;;11.61;100.00
51781;BME280;37844;57.126;24.288;2022-11-02T11:44:55;101482.72;;;11.63;100.00
51781;BME280;37844;57.126;24.288;2022-11-02T11:47:29;101482.44;;;11.50;100.00
51781;BME280;37844;57.126;24.288;2022-11-02T11:50:00;101481.50;;;11.46;100.00
51781;BME280;37844;57.126;24.288;2022-11-02T11:52:27;101491.84;;;11.46;100.00
51781;BME280;37844;57.126;24.288;2022-11-02T11:54:55;101483.22;;;11.47;100.00
51781;BME280;37844;57.126;24.288;2022-11-02T11:57:31;101484.25;;;11.54;100.00
51781;BME280;37844;57.126;24.288;2022-11-02T11:59:59;101476.50;;;11.55;100.00
51781;BME280;37844;57.126;24.288;2022-11-02T12:02:30;101473.06;;;11.55;100.00
51781;BME280;37844;57.126;24.288;2022-11-02T12:05:10;101477.31;;;11.53;100.00
51781;BME280;37844;57.126;24.288;2022-11-02T12:20:06;101467.88;;;11.53;100.00
51781;BME280;37844;57.126;24.288;2022-11-02T12:30:55;101473.94;;;11.55;100.00
51781;BME280;37844;57.126;24.288;2022-11-02T12:36:25;101466.09;;;11.51;100.00
51781;BME280;37844;57.126;24.288;2022-11-02T12:39:18;101458.41;;;11.54;100.00
51781;BME280;37844;57.126;24.288;2022-11-02T12:55:50;101457.56;;;11.55;100.00
51781;BME280;37844;57.126;24.288;2022-11-02T12:58:20;101456.66;;;11.51;100.00
51781;BME280;37844;57.126;24.288;2022-11-02T13:00:49;101452.34;;;11.52;100.00
51781;BME280;37844;57.126;24.288;2022-11-02T13:03:35;101457.31;;;11.42;100.00
51781;BME280;37844;57.126;24.288;2022-11-02T13:06:07;101459.97;;;11.45;100.00
51781;BME280;37844;57.126;24.288;2022-11-02T13:08:57;101456.56;;;11.46;100.00
51781;BME280;37844;57.126;24.288;2022-11-02T13:11:27;101456.41;;;11.40;100.00
51781;BME280;37844;57.126;24.288;2022-11-02T13:13:56;101457.41;;;11.47;100.00
51781;BME280;37844;57.126;24.288;2022-11-02T13:16:32;101460.81;;;11.44;100.00
51781;BME280;37844;57.126;24.288;2022-11-02T13:19:01;101457.38;;;11.44;100.00
51781;BME280;37844;57.126;24.288;2022-11-02T13:21:39;101452.19;;;11.44;100.00
51781;BME280;37844;57.126;24.288;2022-11-02T13:24:14;101453.97;;;11.46;100.00
51781;BME280;37844;57.126;24.288;2022-11-02T13:26:42;101449.69;;;11.47;100.00
51781;BME280;37844;57.126;24.288;2022-11-02T13:29:17;101457.50;;;11.52;100.00
51781;BME280;37844;57.126;24.288;2022-11-02T13:32:32;101451.50;;;11.53;100.00
51781;BME280;37844;57.126;24.288;2022-11-02T13:34:40;101459.19;;;11.50;100.00
51781;BME280;37844;57.126;24.288;2022-11-02T13:37:16;101447.03;;;11.45;100.00
51781;BME280;37844;57.126;24.288;2022-11-02T13:39:50;101450.47;;;11.44;100.00
51781;BME280;37844;57.126;24.288;2022-11-02T13:50:52;101450.59;;;11.49;100.00
51781;BME280;37844;57.126;24.288;2022-11-02T13:53:24;101452.31;;;11.49;100.00
51781;BME280;37844;57.126;24.288;2022-11-02T13:55:54;101446.22;;;11.46;100.00
51781;BME280;37844;57.126;24.288;2022-11-02T13:58:23;101446.22;;;11.46;100.00
51781;BME280;37844;57.126;24.288;2022-11-02T14:00:50;101450.53;;;11.46;100.00
51781;BME280;37844;57.126;24.288;2022-11-02T14:06:13;101442.75;;;11.44;100.00
51781;BME280;37844;57.126;24.288;2022-11-02T14:21:44;101439.41;;;11.49;100.00
51781;BME280;37844;57.126;24.288;2022-11-02T14:43:23;101441.84;;;11.42;100.00
51781;BME280;37844;57.126;24.288;2022-11-02T14:48:14;101435.84;;;11.45;100.00
51781;BME280;37844;57.126;24.288;2022-11-02T14:51:05;101438.41;;;11.43;100.00
51781;BME280;37844;57.126;24.288;2022-11-02T14:53:36;101441.84;;;11.42;100.00
51781;BME280;37844;57.126;24.288;2022-11-02T14:56:02;101441.84;;;11.42;100.00
51781;BME280;37844;57.126;24.288;2022-11-02T14:58:34;101440.16;;;11.44;100.00
51781;BME280;37844;57.126;24.288;2022-11-02T15:01:03;101436.66;;;11.42;100.00
51781;BME280;37844;57.126;24.288;2022-11-02T15:03:35;101428.97;;;11.45;100.00
51781;BME280;37844;57.126;24.288;2022-11-02T15:08:59;101428.13;;;11.45;100.00